sensor_id;sensor_type;location;lat;lon;timestamp;pressure;altitude;pressure_sealevel;temperature;humidity
45991;BME280;31721;41.740;-88.000;2023-08-17T00:02:08;98581.65;;;25.92;39.31
45991;BME280;31721;41.740;-88.000;2023-08-17T00:04:35;98581.06;;;26.12;38.89
45991;BME280;31721;41.740;-88.000;2023-08-17T00:07:03;98579.58;;;26.04;38.68
45991;BME280;31721;41.740;-88.000;2023-08-17T00:09:31;98575.83;;;26.24;38.51
45991;BME280;31721;41.740;-88.000;2023-08-17T00:11:59;98576.26;;;25.98;39.32
45991;BME280;31721;41.740;-88.000;2023-08-17T00:14:26;98575.92;;;25.87;39.56
45991;BME280;31721;41.740;-88.000;2023-08-17T00:16:54;98577.46;;;25.96;39.78
45991;BME280;31721;41.740;-88.000;2023-08-17T00:19:22;98572.54;;;25.91;39.44
45991;BME280;31721;41.740;-88.000;2023-08-17T00:21:50;98570.23;;;25.93;39.60
45991;BME280;31721;41.740;-88.000;2023-08-17T00:24:18;98568.39;;;25.92;39.20
45991;BME280;31721;41.740;-88.000;2023-08-17T00:26:46;98580.46;;;25.94;39.46
45991;BME280;31721;41.740;-88.000;2023-08-17T00:29:14;98572.88;;;25.67;39.87
45991;BME280;31721;41.740;-88.000;2023-08-17T00:31:41;98569.35;;;25.50;40.54
45991;BME280;31721;41.740;-88.000;2023-08-17T00:34:09;98570.73;;;25.60;40.15
45991;BME280;31721;41.740;-88.000;2023-08-17T00:36:37;98566.83;;;25.53;40.23
45991;BME280;31721;41.740;-88.000;2023-08-17T00:39:05;98565.76;;;25.41;40.58
45991;BME280;31721;41.740;-88.000;2023-08-17T00:41:33;98565.93;;;25.28;40.95
45991;BME280;31721;41.740;-88.000;2023-08-17T00:44:01;98564.91;;;25.30;41.14
45991;BME280;31721;41.740;-88.000;2023-08-17T00:46:30;98567.70;;;25.38;40.93
45991;BME280;31721;41.740;-88.000;2023-08-17T00:48:57;98565.78;;;25.50;41.03
45991;BME280;31721;41.740;-88.000;2023-08-17T00:51:26;98563.74;;;25.41;40.96
45991;BME280;31721;41.740;-88.000;2023-08-17T00:53:57;98561.03;;;25.34;41.14
45991;BME280;31721;41.740;-88.000;2023-08-17T00:56:26;98560.60;;;25.33;41.36
45991;BME280;31721;41.740;-88.000;2023-08-17T00:58:54;98561.02;;;25.29;41.18
45991;BME280;31721;41.740;-88.000;2023-08-17T01:01:23;98557.59;;;25.21;41.68
45991;BME280;31721;41.740;-88.000;2023-08-17T01:03:51;98554.96;;;25.19;41.36
45991;BME280;31721;41.740;-88.000;2023-08-17T01:06:19;98555.48;;;25.33;41.29
45991;BME280;31721;41.740;-88.000;2023-08-17T01:08:47;98555.49;;;25.05;42.15
45991;BME280;31721;41.740;-88.000;2023-08-17T01:11:34;98549.55;;;25.04;41.59
45991;BME280;31721;41.740;-88.000;2023-08-17T01:14:08;98554.19;;;24.86;41.76
45991;BME280;31721;41.740;-88.000;2023-08-17T01:16:41;98550.58;;;24.81;41.91
45991;BME280;31721;41.740;-88.000;2023-08-17T01:19:11;98547.00;;;24.82;42.22
45991;BME280;31721;41.740;-88.000;2023-08-17T01:21:44;98540.83;;;24.77;42.05
45991;BME280;31721;41.740;-88.000;2023-08-17T01:24:17;98539.50;;;24.83;42.03
45991;BME280;31721;41.740;-88.000;2023-08-17T01:26:44;98544.23;;;24.75;42.41
45991;BME280;31721;41.740;-88.000;2023-08-17T01:29:12;98543.02;;;24.57;42.22
45991;BME280;31721;41.740;-88.000;2023-08-17T01:31:51;98539.60;;;24.67;42.33
45991;BME280;31721;41.740;-88.000;2023-08-17T01:34:24;98531.27;;;24.77;42.24
45991;BME280;31721;41.740;-88.000;2023-08-17T01:36:56;98532.12;;;24.53;42.65
45991;BME280;31721;41.740;-88.000;2023-08-17T01:39:31;98532.93;;;24.67;42.41
45991;BME280;31721;41.740;-88.000;2023-08-17T01:42:02;98532.64;;;24.52;42.60
45991;BME280;31721;41.740;-88.000;2023-08-17T01:44:31;98533.11;;;24.60;42.85
45991;BME280;31721;41.740;-88.000;2023-08-17T01:46:59;98530.96;;;24.50;42.82
45991;BME280;31721;41.740;-88.000;2023-08-17T01:49:26;98534.87;;;24.49;43.05
45991;BME280;31721;41.740;-88.000;2023-08-17T01:51:54;98534.02;;;24.31;43.17
45991;BME280;31721;41.740;-88.000;2023-08-17T01:54:21;98534.94;;;24.31;43.23
45991;BME280;31721;41.740;-88.000;2023-08-17T01:56:50;98535.92;;;24.52;43.04
45991;BME280;31721;41.740;-88.000;2023-08-17T01:59:18;98532.20;;;24.29;43.41
45991;BME280;31721;41.740;-88.000;2023-08-17T02:01:46;98528.17;;;24.17;43.70
45991;BME280;31721;41.740;-88.000;2023-08-17T02:04:14;98528.10;;;24.24;43.55
45991;BME280;31721;41.740;-88.000;2023-08-17T02:06:42;98526.83;;;24.10;43.75
45991;BME280;31721;41.740;-88.000;2023-08-17T02:09:10;98522.45;;;24.08;43.83
45991;BME280;31721;41.740;-88.000;2023-08-17T02:11:38;98516.55;;;24.12;43.79
45991;BME280;31721;41.740;-88.000;2023-08-17T02:14:06;98511.65;;;24.21;43.73
45991;BME280;31721;41.740;-88.000;2023-08-17T02:16:34;98518.97;;;24.00;43.92
45991;BME280;31721;41.740;-88.000;2023-08-17T02:19:01;98523.50;;;24.06;43.89
45991;BME280;31721;41.740;-88.000;2023-08-17T02:21:29;98523.02;;;23.91;44.41
45991;BME280;31721;41.740;-88.000;2023-08-17T02:23:56;98519.81;;;23.78;44.27
45991;BME280;31721;41.740;-88.000;2023-08-17T02:26:24;98515.35;;;23.75;44.56
45991;BME280;31721;41.740;-88.000;2023-08-17T02:28:52;98513.14;;;23.77;44.37
45991;BME280;31721;41.740;-88.000;2023-08-17T02:31:20;98515.00;;;23.68;44.58
45991;BME280;31721;41.740;-88.000;2023-08-17T02:33:48;98515.71;;;23.86;44.65
45991;BME280;31721;41.740;-88.000;2023-08-17T02:36:15;98521.93;;;23.66;44.73
45991;BME280;31721;41.740;-88.000;2023-08-17T02:38:43;98518.93;;;23.67;44.77
45991;BME280;31721;41.740;-88.000;2023-08-17T02:41:11;98522.63;;;23.64;45.09
45991;BME280;31721;41.740;-88.000;2023-08-17T02:43:39;98521.39;;;23.67;45.10
45991;BME280;31721;41.740;-88.000;2023-08-17T02:46:07;98518.39;;;23.58;45.08
45991;BME280;31721;41.740;-88.000;2023-08-17T02:48:35;98515.94;;;23.40;45.17
45991;BME280;31721;41.740;-88.000;2023-08-17T02:51:03;98516.16;;;23.36;45.22
45991;BME280;31721;41.740;-88.000;2023-08-17T02:53:31;98515.70;;;23.41;45.19
45991;BME280;31721;41.740;-88.000;2023-08-17T02:55:59;98513.95;;;23.35;45.55
45991;BME280;31721;41.740;-88.000;2023-08-17T02:58:27;98506.06;;;23.36;45.51
45991;BME280;31721;41.740;-88.000;2023-08-17T03:00:54;98500.30;;;23.43;45.65
45991;BME280;31721;41.740;-88.000;2023-08-17T03:03:22;98492.22;;;23.38;45.80
45991;BME280;31721;41.740;-88.000;2023-08-17T03:05:50;98488.66;;;23.33;45.76
45991;BME280;31721;41.740;-88.000;2023-08-17T03:08:18;98485.13;;;23.35;45.68
45991;BME280;31721;41.740;-88.000;2023-08-17T03:10:46;98480.09;;;23.16;45.72
45991;BME280;31721;41.740;-88.000;2023-08-17T03:13:14;98476.35;;;23.01;46.01
45991;BME280;31721;41.740;-88.000;2023-08-17T03:15:42;98469.42;;;22.93;46.47
45991;BME280;31721;41.740;-88.000;2023-08-17T03:18:10;98454.96;;;22.77;46.42
45991;BME280;31721;41.740;-88.000;2023-08-17T03:20:38;98452.79;;;22.92;46.46
45991;BME280;31721;41.740;-88.000;2023-08-17T03:23:06;98446.87;;;23.03;46.11
45991;BME280;31721;41.740;-88.000;2023-08-17T03:25:34;98439.91;;;22.96;46.16
45991;BME280;31721;41.740;-88.000;2023-08-17T03:28:03;98444.21;;;22.90;46.36
45991;BME280;31721;41.740;-88.000;2023-08-17T03:30:31;98447.76;;;22.76;46.52
45991;BME280;31721;41.740;-88.000;2023-08-17T03:32:58;98440.75;;;22.79;46.90
45991;BME280;31721;41.740;-88.000;2023-08-17T03:35:26;98436.83;;;22.47;47.81
45991;BME280;31721;41.740;-88.000;2023-08-17T03:37:54;98442.03;;;22.50;46.51
45991;BME280;31721;41.740;-88.000;2023-08-17T03:40:21;98446.86;;;22.56;46.63
45991;BME280;31721;41.740;-88.000;2023-08-17T03:42:49;98443.92;;;22.50;47.03
45991;BME280;31721;41.740;-88.000;2023-08-17T03:45:17;98441.72;;;22.59;47.28
45991;BME280;31721;41.740;-88.000;2023-08-17T03:47:45;98437.74;;;22.49;47.15
45991;BME280;31721;41.740;-88.000;2023-08-17T03:50:13;98437.91;;;22.57;46.92
45991;BME280;31721;41.740;-88.000;2023-08-17T03:52:40;98438.52;;;22.44;47.20
45991;BME280;31721;41.740;-88.000;2023-08-17T03:55:09;98436.64;;;22.27;47.39
45991;BME280;31721;41.740;-88.000;2023-08-17T03:57:37;98430.72;;;22.32;47.32
45991;BME280;31721;41.740;-88.000;2023-08-17T04:00:06;98430.90;;;22.40;47.39
45991;BME280;31721;41.740;-88.000;2023-08-17T04:02:34;98429.32;;;22.47;47.24
45991;BME280;31721;41.740;-88.000;2023-08-17T04:05:02;98422.36;;;22.53;47.30
45991;BME280;31721;41.740;-88.000;2023-08-17T04:07:30;98419.97;;;22.31;47.45
45991;BME280;31721;41.740;-88.000;2023-08-17T04:09:57;98423.07;;;22.21;47.53
45991;BME280;31721;41.740;-88.000;2023-08-17T04:12:25;98422.89;;;22.02;47.82
45991;BME280;31721;41.740;-88.000;2023-08-17T04:14:53;98421.88;;;22.12;47.67
45991;BME280;31721;41.740;-88.000;2023-08-17T04:17:22;98419.79;;;22.19;47.90
45991;BME280;31721;41.740;-88.000;2023-08-17T04:19:49;98416.33;;;22.06;47.91
45991;BME280;31721;41.740;-88.000;2023-08-17T04:22:18;98418.62;;;22.04;47.77
45991;BME280;31721;41.740;-88.000;2023-08-17T04:24:46;98420.32;;;22.03;48.04
45991;BME280;31721;41.740;-88.000;2023-08-17T04:27:13;98422.49;;;22.07;48.03
45991;BME280;31721;41.740;-88.000;2023-08-17T04:29:41;98422.12;;;22.05;47.85
45991;BME280;31721;41.740;-88.000;2023-08-17T04:32:14;98419.06;;;22.00;48.39
45991;BME280;31721;41.740;-88.000;2023-08-17T04:34:42;98408.32;;;21.93;48.35
45991;BME280;31721;41.740;-88.000;2023-08-17T04:37:10;98407.53;;;21.99;48.24
45991;BME280;31721;41.740;-88.000;2023-08-17T04:39:37;98406.25;;;21.99;48.40
45991;BME280;31721;41.740;-88.000;2023-08-17T04:42:06;98401.23;;;21.73;48.53
45991;BME280;31721;41.740;-88.000;2023-08-17T04:44:33;98395.79;;;21.90;48.87
45991;BME280;31721;41.740;-88.000;2023-08-17T04:47:01;98386.20;;;21.82;48.75
45991;BME280;31721;41.740;-88.000;2023-08-17T04:49:29;98380.25;;;21.71;49.16
45991;BME280;31721;41.740;-88.000;2023-08-17T04:51:57;98374.73;;;21.92;49.01
45991;BME280;31721;41.740;-88.000;2023-08-17T04:54:25;98377.63;;;21.63;49.15
45991;BME280;31721;41.740;-88.000;2023-08-17T04:56:53;98368.20;;;21.84;49.04
45991;BME280;31721;41.740;-88.000;2023-08-17T04:59:20;98363.87;;;22.03;48.90
45991;BME280;31721;41.740;-88.000;2023-08-17T05:01:48;98357.47;;;21.71;48.92
45991;BME280;31721;41.740;-88.000;2023-08-17T05:04:16;98359.15;;;21.61;49.24
45991;BME280;31721;41.740;-88.000;2023-08-17T05:06:44;98368.06;;;21.83;49.31
45991;BME280;31721;41.740;-88.000;2023-08-17T05:09:12;98374.63;;;21.76;49.23
45991;BME280;31721;41.740;-88.000;2023-08-17T05:11:39;98378.88;;;21.71;49.42
45991;BME280;31721;41.740;-88.000;2023-08-17T05:14:07;98378.92;;;21.72;49.72
45991;BME280;31721;41.740;-88.000;2023-08-17T05:16:35;98390.95;;;21.50;49.75
45991;BME280;31721;41.740;-88.000;2023-08-17T05:19:03;98400.73;;;21.59;49.54
45991;BME280;31721;41.740;-88.000;2023-08-17T05:21:31;98396.90;;;21.61;49.98
45991;BME280;31721;41.740;-88.000;2023-08-17T05:23:58;98392.67;;;21.60;49.91
45991;BME280;31721;41.740;-88.000;2023-08-17T05:26:26;98394.78;;;21.70;50.02
45991;BME280;31721;41.740;-88.000;2023-08-17T05:28:54;98389.86;;;21.55;50.27
45991;BME280;31721;41.740;-88.000;2023-08-17T05:31:22;98383.31;;;21.48;50.16
45991;BME280;31721;41.740;-88.000;2023-08-17T05:33:49;98380.69;;;21.48;50.25
45991;BME280;31721;41.740;-88.000;2023-08-17T05:36:17;98367.87;;;21.33;50.39
45991;BME280;31721;41.740;-88.000;2023-08-17T05:38:45;98363.61;;;21.30;50.27
45991;BME280;31721;41.740;-88.000;2023-08-17T05:41:12;98368.32;;;21.38;50.55
45991;BME280;31721;41.740;-88.000;2023-08-17T05:43:40;98368.07;;;21.38;50.39
45991;BME280;31721;41.740;-88.000;2023-08-17T05:46:08;98371.70;;;21.46;50.68
45991;BME280;31721;41.740;-88.000;2023-08-17T05:48:36;98373.78;;;21.38;50.65
45991;BME280;31721;41.740;-88.000;2023-08-17T05:51:03;98360.98;;;21.33;50.85
45991;BME280;31721;41.740;-88.000;2023-08-17T05:53:31;98354.37;;;21.27;50.91
45991;BME280;31721;41.740;-88.000;2023-08-17T05:55:59;98351.71;;;21.29;50.81
45991;BME280;31721;41.740;-88.000;2023-08-17T05:58:26;98356.95;;;21.18;50.95
45991;BME280;31721;41.740;-88.000;2023-08-17T06:00:54;98358.33;;;21.36;50.84
45991;BME280;31721;41.740;-88.000;2023-08-17T06:03:22;98350.88;;;21.03;51.01
45991;BME280;31721;41.740;-88.000;2023-08-17T06:05:53;98347.84;;;21.28;51.15
45991;BME280;31721;41.740;-88.000;2023-08-17T06:08:20;98345.84;;;21.12;51.04
45991;BME280;31721;41.740;-88.000;2023-08-17T06:10:48;98347.50;;;21.26;50.78
45991;BME280;31721;41.740;-88.000;2023-08-17T06:13:16;98347.58;;;21.30;50.85
45991;BME280;31721;41.740;-88.000;2023-08-17T06:15:43;98344.52;;;21.19;51.03
45991;BME280;31721;41.740;-88.000;2023-08-17T06:18:11;98337.98;;;21.07;51.30
45991;BME280;31721;41.740;-88.000;2023-08-17T06:20:39;98328.72;;;21.05;51.42
45991;BME280;31721;41.740;-88.000;2023-08-17T06:23:06;98318.53;;;20.94;51.25
45991;BME280;31721;41.740;-88.000;2023-08-17T06:25:34;98315.62;;;20.87;51.59
45991;BME280;31721;41.740;-88.000;2023-08-17T06:28:02;98317.87;;;20.87;51.46
45991;BME280;31721;41.740;-88.000;2023-08-17T06:30:29;98322.21;;;20.91;51.40
45991;BME280;31721;41.740;-88.000;2023-08-17T06:32:57;98315.40;;;20.99;51.38
45991;BME280;31721;41.740;-88.000;2023-08-17T06:35:25;98305.89;;;20.88;51.62
45991;BME280;31721;41.740;-88.000;2023-08-17T06:37:52;98304.48;;;20.80;51.72
45991;BME280;31721;41.740;-88.000;2023-08-17T06:40:20;98305.33;;;20.92;51.64
45991;BME280;31721;41.740;-88.000;2023-08-17T06:42:47;98297.76;;;20.70;51.88
45991;BME280;31721;41.740;-88.000;2023-08-17T06:45:15;98290.51;;;20.78;51.87
45991;BME280;31721;41.740;-88.000;2023-08-17T06:47:43;98284.60;;;20.93;51.83
45991;BME280;31721;41.740;-88.000;2023-08-17T06:50:11;98279.70;;;20.64;51.90
45991;BME280;31721;41.740;-88.000;2023-08-17T06:52:39;98270.26;;;20.94;51.87
45991;BME280;31721;41.740;-88.000;2023-08-17T06:55:07;98270.17;;;20.86;51.76
45991;BME280;31721;41.740;-88.000;2023-08-17T06:57:35;98266.08;;;20.77;51.89
45991;BME280;31721;41.740;-88.000;2023-08-17T07:00:04;98260.45;;;20.89;51.85
45991;BME280;31721;41.740;-88.000;2023-08-17T07:02:32;98256.36;;;20.66;52.41
45991;BME280;31721;41.740;-88.000;2023-08-17T07:05:01;98261.02;;;20.84;52.24
45991;BME280;31721;41.740;-88.000;2023-08-17T07:07:28;98260.39;;;20.96;52.16
45991;BME280;31721;41.740;-88.000;2023-08-17T07:09:55;98272.67;;;21.00;52.38
45991;BME280;31721;41.740;-88.000;2023-08-17T07:12:23;98278.95;;;20.83;52.56
45991;BME280;31721;41.740;-88.000;2023-08-17T07:14:51;98274.59;;;20.76;52.67
45991;BME280;31721;41.740;-88.000;2023-08-17T07:17:19;98276.51;;;20.73;52.69
45991;BME280;31721;41.740;-88.000;2023-08-17T07:19:46;98278.53;;;20.75;52.75
45991;BME280;31721;41.740;-88.000;2023-08-17T07:22:14;98279.78;;;20.89;52.53
45991;BME280;31721;41.740;-88.000;2023-08-17T07:24:42;98281.64;;;20.75;52.85
45991;BME280;31721;41.740;-88.000;2023-08-17T07:27:10;98284.69;;;20.78;52.51
45991;BME280;31721;41.740;-88.000;2023-08-17T07:29:38;98284.29;;;20.71;52.43
45991;BME280;31721;41.740;-88.000;2023-08-17T07:32:06;98273.31;;;20.75;52.54
45991;BME280;31721;41.740;-88.000;2023-08-17T07:34:35;98271.19;;;20.88;51.85
45991;BME280;31721;41.740;-88.000;2023-08-17T07:37:04;98276.88;;;20.95;51.90
45991;BME280;31721;41.740;-88.000;2023-08-17T07:39:31;98271.31;;;20.85;51.94
45991;BME280;31721;41.740;-88.000;2023-08-17T07:41:59;98266.66;;;20.77;52.10
45991;BME280;31721;41.740;-88.000;2023-08-17T07:44:27;98269.85;;;20.83;51.95
45991;BME280;31721;41.740;-88.000;2023-08-17T07:46:55;98262.68;;;20.64;52.26
45991;BME280;31721;41.740;-88.000;2023-08-17T07:49:22;98256.24;;;20.83;51.97
45991;BME280;31721;41.740;-88.000;2023-08-17T07:51:50;98250.22;;;20.98;51.78
45991;BME280;31721;41.740;-88.000;2023-08-17T07:54:17;98251.07;;;20.86;51.91
45991;BME280;31721;41.740;-88.000;2023-08-17T07:56:45;98244.39;;;20.79;52.07
45991;BME280;31721;41.740;-88.000;2023-08-17T07:59:12;98237.42;;;20.86;51.91
45991;BME280;31721;41.740;-88.000;2023-08-17T08:01:40;98229.51;;;20.74;52.06
45991;BME280;31721;41.740;-88.000;2023-08-17T08:04:07;98229.18;;;20.68;51.99
45991;BME280;31721;41.740;-88.000;2023-08-17T08:06:35;98222.44;;;20.73;52.01
45991;BME280;31721;41.740;-88.000;2023-08-17T08:09:03;98209.38;;;20.79;51.94
45991;BME280;31721;41.740;-88.000;2023-08-17T08:11:30;98203.62;;;20.81;51.88
45991;BME280;31721;41.740;-88.000;2023-08-17T08:13:58;98203.27;;;20.81;52.13
45991;BME280;31721;41.740;-88.000;2023-08-17T08:16:27;98186.32;;;20.66;52.19
45991;BME280;31721;41.740;-88.000;2023-08-17T08:18:55;98172.97;;;20.66;52.22
45991;BME280;31721;41.740;-88.000;2023-08-17T08:21:23;98163.45;;;20.77;52.02
45991;BME280;31721;41.740;-88.000;2023-08-17T08:23:50;98148.97;;;20.52;52.32
45991;BME280;31721;41.740;-88.000;2023-08-17T08:26:18;98149.83;;;20.70;52.16
45991;BME280;31721;41.740;-88.000;2023-08-17T08:28:45;98139.60;;;20.61;52.35
45991;BME280;31721;41.740;-88.000;2023-08-17T08:31:13;98132.51;;;20.63;52.13
45991;BME280;31721;41.740;-88.000;2023-08-17T08:33:41;98135.14;;;20.55;52.32
45991;BME280;31721;41.740;-88.000;2023-08-17T08:36:08;98137.44;;;20.59;52.48
45991;BME280;31721;41.740;-88.000;2023-08-17T08:38:36;98126.52;;;20.56;52.59
45991;BME280;31721;41.740;-88.000;2023-08-17T08:41:03;98116.58;;;20.53;52.34
45991;BME280;31721;41.740;-88.000;2023-08-17T08:43:32;98107.15;;;20.45;52.39
45991;BME280;31721;41.740;-88.000;2023-08-17T08:46:00;98102.01;;;20.57;52.44
45991;BME280;31721;41.740;-88.000;2023-08-17T08:48:29;98098.76;;;20.43;52.71
45991;BME280;31721;41.740;-88.000;2023-08-17T08:51:00;98090.00;;;20.50;52.62
45991;BME280;31721;41.740;-88.000;2023-08-17T08:53:32;98084.75;;;20.39;52.83
45991;BME280;31721;41.740;-88.000;2023-08-17T08:56:03;98077.69;;;20.52;52.72
45991;BME280;31721;41.740;-88.000;2023-08-17T08:58:33;98072.96;;;20.41;53.07
45991;BME280;31721;41.740;-88.000;2023-08-17T09:01:02;98060.51;;;20.49;52.86
45991;BME280;31721;41.740;-88.000;2023-08-17T09:03:32;98058.09;;;20.42;52.95
45991;BME280;31721;41.740;-88.000;2023-08-17T09:06:00;98059.59;;;20.39;53.02
45991;BME280;31721;41.740;-88.000;2023-08-17T09:08:29;98062.63;;;20.57;52.83
45991;BME280;31721;41.740;-88.000;2023-08-17T09:10:57;98051.57;;;20.59;52.97
45991;BME280;31721;41.740;-88.000;2023-08-17T09:13:25;98049.01;;;20.29;53.15
45991;BME280;31721;41.740;-88.000;2023-08-17T09:15:53;98055.35;;;20.32;53.19
45991;BME280;31721;41.740;-88.000;2023-08-17T09:18:21;98050.78;;;20.64;53.05
45991;BME280;31721;41.740;-88.000;2023-08-17T09:20:48;98055.21;;;20.53;53.16
45991;BME280;31721;41.740;-88.000;2023-08-17T09:23:20;98051.53;;;20.59;53.13
45991;BME280;31721;41.740;-88.000;2023-08-17T09:25:50;98045.78;;;20.47;53.61
45991;BME280;31721;41.740;-88.000;2023-08-17T09:28:18;98032.19;;;20.50;53.29
45991;BME280;31721;41.740;-88.000;2023-08-17T09:30:52;98029.03;;;20.48;53.36
45991;BME280;31721;41.740;-88.000;2023-08-17T09:33:21;98028.67;;;20.42;53.50
45991;BME280;31721;41.740;-88.000;2023-08-17T09:35:50;98025.38;;;20.47;53.36
45991;BME280;31721;41.740;-88.000;2023-08-17T09:38:17;98027.07;;;20.58;53.15
45991;BME280;31721;41.740;-88.000;2023-08-17T09:40:45;98024.10;;;20.36;53.47
45991;BME280;31721;41.740;-88.000;2023-08-17T09:43:14;98023.46;;;20.37;53.64
45991;BME280;31721;41.740;-88.000;2023-08-17T09:45:43;98013.46;;;20.42;53.28
45991;BME280;31721;41.740;-88.000;2023-08-17T09:48:14;98015.82;;;20.50;53.69
45991;BME280;31721;41.740;-88.000;2023-08-17T09:50:43;98010.27;;;20.33;53.70
45991;BME280;31721;41.740;-88.000;2023-08-17T09:53:13;98000.21;;;20.42;53.50
45991;BME280;31721;41.740;-88.000;2023-08-17T09:55:42;97990.13;;;20.42;53.61
45991;BME280;31721;41.740;-88.000;2023-08-17T09:58:10;97984.27;;;20.25;53.48
45991;BME280;31721;41.740;-88.000;2023-08-17T10:00:38;97987.19;;;20.50;53.74
45991;BME280;31721;41.740;-88.000;2023-08-17T10:03:07;97984.42;;;20.53;53.64
45991;BME280;31721;41.740;-88.000;2023-08-17T10:05:38;97974.71;;;20.38;53.65
45991;BME280;31721;41.740;-88.000;2023-08-17T10:08:07;97963.68;;;20.42;53.94
45991;BME280;31721;41.740;-88.000;2023-08-17T10:10:42;97964.54;;;20.59;53.70
45991;BME280;31721;41.740;-88.000;2023-08-17T10:13:12;97966.27;;;20.37;54.01
45991;BME280;31721;41.740;-88.000;2023-08-17T10:15:47;97958.43;;;20.43;53.93
45991;BME280;31721;41.740;-88.000;2023-08-17T10:18:25;97951.54;;;20.42;54.05
45991;BME280;31721;41.740;-88.000;2023-08-17T10:21:12;97951.48;;;20.35;54.24
45991;BME280;31721;41.740;-88.000;2023-08-17T10:23:41;97937.81;;;20.14;54.49
45991;BME280;31721;41.740;-88.000;2023-08-17T10:26:10;97936.28;;;20.43;54.17
45991;BME280;31721;41.740;-88.000;2023-08-17T10:28:38;97935.40;;;20.36;54.05
45991;BME280;31721;41.740;-88.000;2023-08-17T10:31:07;97928.05;;;20.63;53.99
45991;BME280;31721;41.740;-88.000;2023-08-17T10:33:36;97921.15;;;20.48;54.01
45991;BME280;31721;41.740;-88.000;2023-08-17T10:36:06;97917.28;;;20.49;54.26
45991;BME280;31721;41.740;-88.000;2023-08-17T10:38:34;97909.25;;;20.26;54.47
45991;BME280;31721;41.740;-88.000;2023-08-17T10:41:10;97908.39;;;20.59;53.75
45991;BME280;31721;41.740;-88.000;2023-08-17T10:43:55;97904.01;;;20.55;53.87
45991;BME280;31721;41.740;-88.000;2023-08-17T10:46:33;97908.74;;;20.58;53.78
45991;BME280;31721;41.740;-88.000;2023-08-17T10:49:03;97910.18;;;20.61;53.84
45991;BME280;31721;41.740;-88.000;2023-08-17T10:51:31;97914.01;;;20.66;53.51
45991;BME280;31721;41.740;-88.000;2023-08-17T10:54:03;97907.89;;;20.62;53.63
45991;BME280;31721;41.740;-88.000;2023-08-17T10:56:33;97904.17;;;20.48;53.98
45991;BME280;31721;41.740;-88.000;2023-08-17T10:59:01;97909.56;;;20.56;53.89
45991;BME280;31721;41.740;-88.000;2023-08-17T11:01:33;97905.96;;;20.42;53.94
45991;BME280;31721;41.740;-88.000;2023-08-17T11:04:10;97911.05;;;20.64;53.86
45991;BME280;31721;41.740;-88.000;2023-08-17T11:06:38;97904.47;;;20.59;53.84
45991;BME280;31721;41.740;-88.000;2023-08-17T11:09:07;97919.03;;;20.52;54.12
45991;BME280;31721;41.740;-88.000;2023-08-17T11:11:35;97902.92;;;20.40;54.00
45991;BME280;31721;41.740;-88.000;2023-08-17T11:14:03;97896.91;;;20.54;53.98
45991;BME280;31721;41.740;-88.000;2023-08-17T11:16:30;97895.70;;;20.40;54.30
45991;BME280;31721;41.740;-88.000;2023-08-17T11:19:00;97888.18;;;20.56;54.17
45991;BME280;31721;41.740;-88.000;2023-08-17T11:21:28;97874.78;;;20.43;54.50
45991;BME280;31721;41.740;-88.000;2023-08-17T11:23:56;97872.36;;;20.53;54.36
45991;BME280;31721;41.740;-88.000;2023-08-17T11:26:24;97863.26;;;20.55;54.08
45991;BME280;31721;41.740;-88.000;2023-08-17T11:28:52;97872.70;;;20.51;54.74
45991;BME280;31721;41.740;-88.000;2023-08-17T11:31:20;97873.15;;;20.43;54.40
45991;BME280;31721;41.740;-88.000;2023-08-17T11:33:47;97889.49;;;20.46;54.36
45991;BME280;31721;41.740;-88.000;2023-08-17T11:36:15;97890.28;;;20.66;54.19
45991;BME280;31721;41.740;-88.000;2023-08-17T11:38:44;97900.07;;;20.75;54.21
45991;BME280;31721;41.740;-88.000;2023-08-17T11:41:12;97897.69;;;20.58;54.34
45991;BME280;31721;41.740;-88.000;2023-08-17T11:43:40;97897.57;;;20.62;54.44
45991;BME280;31721;41.740;-88.000;2023-08-17T11:46:08;97891.18;;;20.82;54.20
45991;BME280;31721;41.740;-88.000;2023-08-17T11:48:37;97901.03;;;20.66;54.40
45991;BME280;31721;41.740;-88.000;2023-08-17T11:51:04;97896.02;;;20.72;54.34
45991;BME280;31721;41.740;-88.000;2023-08-17T11:53:35;97900.02;;;20.57;54.50
45991;BME280;31721;41.740;-88.000;2023-08-17T11:56:04;97888.38;;;20.66;54.49
45991;BME280;31721;41.740;-88.000;2023-08-17T11:58:46;97875.53;;;20.64;54.52
45991;BME280;31721;41.740;-88.000;2023-08-17T12:01:15;97884.62;;;20.80;54.33
45991;BME280;31721;41.740;-88.000;2023-08-17T12:03:43;97898.60;;;20.82;54.79
45991;BME280;31721;41.740;-88.000;2023-08-17T12:06:11;97880.47;;;20.88;54.39
45991;BME280;31721;41.740;-88.000;2023-08-17T12:08:42;97875.47;;;20.80;54.49
45991;BME280;31721;41.740;-88.000;2023-08-17T12:11:09;97855.24;;;20.80;54.55
45991;BME280;31721;41.740;-88.000;2023-08-17T12:13:37;97857.61;;;20.84;54.50
45991;BME280;31721;41.740;-88.000;2023-08-17T12:16:05;97862.54;;;20.75;54.67
45991;BME280;31721;41.740;-88.000;2023-08-17T12:18:33;97879.32;;;20.75;55.04
45991;BME280;31721;41.740;-88.000;2023-08-17T12:21:03;97875.58;;;20.74;54.87
45991;BME280;31721;41.740;-88.000;2023-08-17T12:23:33;97895.11;;;20.70;54.77
45991;BME280;31721;41.740;-88.000;2023-08-17T12:26:01;97901.59;;;20.90;54.95
45991;BME280;31721;41.740;-88.000;2023-08-17T12:28:29;97895.64;;;20.90;54.85
45991;BME280;31721;41.740;-88.000;2023-08-17T12:30:59;97927.84;;;20.84;54.93
45991;BME280;31721;41.740;-88.000;2023-08-17T12:33:27;97935.24;;;20.73;55.11
45991;BME280;31721;41.740;-88.000;2023-08-17T12:35:55;97951.19;;;20.79;55.44
45991;BME280;31721;41.740;-88.000;2023-08-17T12:38:24;97978.98;;;20.74;56.36
45991;BME280;31721;41.740;-88.000;2023-08-17T12:40:52;97979.23;;;20.86;57.58
45991;BME280;31721;41.740;-88.000;2023-08-17T12:43:21;97917.21;;;20.65;58.56
45991;BME280;31721;41.740;-88.000;2023-08-17T12:45:48;97959.70;;;20.77;59.21
45991;BME280;31721;41.740;-88.000;2023-08-17T12:48:16;97959.00;;;20.19;59.26